createdAt,value
2023-01-17T00:05:21.135Z,2.79
2023-01-17T00:10:27.530Z,2.77
2023-01-17T00:15:31.462Z,2.56
2023-01-17T00:20:52.412Z,2.46
2023-01-17T00:26:03.875Z,2.39
2023-01-17T00:31:08.297Z,2.36
2023-01-17T00:36:11.693Z,2.38
2023-01-17T00:41:15.657Z,2.53
2023-01-17T00:46:37.166Z,2.50
2023-01-17T00:51:57.803Z,2.51
2023-01-17T00:57:18.824Z,2.49
2023-01-17T01:02:40.430Z,2.57
2023-01-17T01:08:01.717Z,2.57
2023-01-17T01:13:22.852Z,2.62
2023-01-17T01:18:43.693Z,2.61
2023-01-17T01:24:04.928Z,2.50
2023-01-17T01:29:25.931Z,2.44
2023-01-17T01:34:28.318Z,2.45
2023-01-17T01:39:30.808Z,2.47
2023-01-17T01:44:47.628Z,2.55
2023-01-17T01:49:51.113Z,2.53
2023-01-17T01:54:58.779Z,2.52
2023-01-17T02:00:11.763Z,2.51
2023-01-17T02:05:20.870Z,2.45
2023-01-17T02:10:23.313Z,2.45
2023-01-17T02:15:31.998Z,2.47
2023-01-17T02:20:57.251Z,2.50
2023-01-17T02:26:10.763Z,2.61
2023-01-17T02:31:32.612Z,2.53
2023-01-17T02:36:46.755Z,2.58
2023-01-17T02:42:01.041Z,2.59
2023-01-17T02:47:22.746Z,2.56
2023-01-17T02:52:31.513Z,2.68
2023-01-17T02:58:16.049Z,2.69
2023-01-17T03:03:29.101Z,2.65
2023-01-17T03:08:32.648Z,2.63
2023-01-17T03:13:35.422Z,2.66
2023-01-17T03:18:38.397Z,2.53
2023-01-17T03:23:40.871Z,2.47
2023-01-17T03:28:43.589Z,2.46
2023-01-17T03:33:46.743Z,2.55
2023-01-17T03:38:49.253Z,2.91
2023-01-17T03:43:51.722Z,4.41
2023-01-17T03:48:54.547Z,4.77
2023-01-17T03:53:57.012Z,6.07
2023-01-17T03:58:59.133Z,6.27
2023-01-17T04:04:01.585Z,3.43
2023-01-17T04:09:04.482Z,2.86
2023-01-17T04:14:07.065Z,2.58
2023-01-17T04:19:13.994Z,2.65
2023-01-17T04:24:17.889Z,2.57
2023-01-17T04:29:20.712Z,2.66
2023-01-17T04:34:23.057Z,3.18
2023-01-17T04:39:25.463Z,2.97
2023-01-17T04:44:27.484Z,2.79
2023-01-17T04:49:29.577Z,2.75
2023-01-17T04:54:31.828Z,2.87
2023-01-17T04:59:34.439Z,3.13
2023-01-17T05:04:36.524Z,3.22
2023-01-17T05:09:38.570Z,3.31
2023-01-17T05:14:40.548Z,3.51
2023-01-17T05:19:42.515Z,3.61
2023-01-17T05:24:47.702Z,3.59
2023-01-17T05:29:49.943Z,3.47
2023-01-17T05:34:52.019Z,3.37
2023-01-17T05:39:54.072Z,3.28
2023-01-17T05:44:56.074Z,3.00
2023-01-17T05:49:58.069Z,2.88
2023-01-17T05:55:00.097Z,2.84
2023-01-17T06:00:02.572Z,2.86
2023-01-17T06:05:07.467Z,2.92
2023-01-17T06:10:10.947Z,3.03
2023-01-17T06:15:15.709Z,2.91
2023-01-17T06:20:17.881Z,2.66
2023-01-17T06:25:19.936Z,2.74
2023-01-17T06:30:22.165Z,2.81
2023-01-17T06:35:24.417Z,2.71
2023-01-17T06:40:29.285Z,2.80
2023-01-17T06:45:34.119Z,2.73
2023-01-17T06:50:36.282Z,2.78
2023-01-17T06:55:40.438Z,2.98
2023-01-17T07:00:42.601Z,2.96
2023-01-17T07:05:44.822Z,3.08
2023-01-17T07:10:48.885Z,3.55
2023-01-17T07:15:51.079Z,3.77
2023-01-17T07:20:54.253Z,4.15
2023-01-17T07:26:00.499Z,4.20
2023-01-17T07:31:10.241Z,3.92
2023-01-17T07:36:12.236Z,3.83
2023-01-17T07:41:17.065Z,3.86
2023-01-17T07:46:19.360Z,4.06
2023-01-17T07:51:21.505Z,4.18
2023-01-17T07:56:23.925Z,4.05
2023-01-17T08:01:26.064Z,3.94
2023-01-17T08:06:29.824Z,3.76
2023-01-17T08:11:32.054Z,3.76
2023-01-17T08:16:34.567Z,3.80
2023-01-17T08:21:36.726Z,3.88
2023-01-17T08:26:38.726Z,3.96
2023-01-17T08:31:40.926Z,4.00
2023-01-17T08:36:44.202Z,4.06
2023-01-17T08:41:46.508Z,4.64
2023-01-17T08:46:49.081Z,4.93
2023-01-17T08:51:52.764Z,4.82
2023-01-17T08:56:55.769Z,4.85
2023-01-17T09:01:58.923Z,4.58
2023-01-17T09:07:01.093Z,4.59
2023-01-17T09:12:03.486Z,4.34
2023-01-17T09:17:08.806Z,4.14
2023-01-17T09:22:12.429Z,4.44
2023-01-17T09:27:14.424Z,4.86
2023-01-17T09:32:17.305Z,5.20
2023-01-17T09:37:19.297Z,5.24
2023-01-17T09:42:25.856Z,5.34
2023-01-17T09:47:53.932Z,5.34
2023-01-17T09:53:03.250Z,5.25
2023-01-17T09:58:21.230Z,6.17
2023-01-17T10:03:40.629Z,8.20
2023-01-17T10:09:01.004Z,9.81
2023-01-17T10:14:31.134Z,11.70
2023-01-17T10:19:55.534Z,9.99
2023-01-17T10:25:13.236Z,8.44
2023-01-17T10:30:53.792Z,8.24
2023-01-17T10:35:59.059Z,7.99
2023-01-17T10:41:18.451Z,7.13
2023-01-17T10:46:31.557Z,7.28
2023-01-17T10:52:02.022Z,6.98
2023-01-17T10:57:04.520Z,7.12
2023-01-17T11:02:19.067Z,9.43
2023-01-17T11:07:29.427Z,9.75
2023-01-17T11:12:45.015Z,8.89
2023-01-17T11:18:15.969Z,9.35
2023-01-17T11:23:33.363Z,10.59
2023-01-17T11:28:37.959Z,13.55
2023-01-17T11:33:49.232Z,14.23
2023-01-17T11:39:17.781Z,15.55
2023-01-17T11:44:25.837Z,16.63
2023-01-17T11:49:30.110Z,18.07
2023-01-17T11:54:40.350Z,17.75
2023-01-17T11:59:45.976Z,17.76
2023-01-17T12:05:25.961Z,19.48
2023-01-17T12:11:05.942Z,19.72
2023-01-17T12:16:26.916Z,18.86
2023-01-17T12:22:15.937Z,17.43
2023-01-17T12:27:59.896Z,14.83
2023-01-17T12:33:23.545Z,12.76
2023-01-17T12:38:40.259Z,11.33
2023-01-17T12:43:44.270Z,11.46
2023-01-17T12:48:56.592Z,11.51
2023-01-17T12:54:16.101Z,11.50
2023-01-17T12:59:42.822Z,10.77
2023-01-17T13:04:59.169Z,10.02
2023-01-17T13:10:15.501Z,9.42
2023-01-17T13:15:24.904Z,9.28
2023-01-17T13:20:45.833Z,9.16
2023-01-17T13:25:51.147Z,8.92
2023-01-17T13:31:33.752Z,8.57
2023-01-17T13:36:48.853Z,8.41
2023-01-17T13:41:55.077Z,8.43
2023-01-17T13:47:27.197Z,8.57
2023-01-17T13:52:33.408Z,8.03
2023-01-17T13:57:43.570Z,8.09
2023-01-17T14:02:46.656Z,8.22
2023-01-17T14:07:59.328Z,8.13
2023-01-17T14:13:04.395Z,7.84
2023-01-17T14:18:38.856Z,7.68
2023-01-17T14:23:52.430Z,7.75
2023-01-17T14:28:57.409Z,7.72
2023-01-17T14:34:13.602Z,7.40
2023-01-17T14:39:22.915Z,7.49
2023-01-17T14:44:25.109Z,7.64
2023-01-17T14:49:27.303Z,7.64
2023-01-17T14:54:29.902Z,7.59
2023-01-17T14:59:32.190Z,7.55
2023-01-17T15:04:39.659Z,7.62
2023-01-17T15:09:43.885Z,7.56
2023-01-17T15:14:47.011Z,7.50
2023-01-17T15:20:06.381Z,7.51
2023-01-17T15:25:11.759Z,7.45
2023-01-17T15:30:16.655Z,7.49
2023-01-17T15:35:20.121Z,7.38
2023-01-17T15:40:25.825Z,7.25
2023-01-17T15:45:31.250Z,7.33
2023-01-17T15:50:39.721Z,7.19
2023-01-17T15:55:48.446Z,7.04
2023-01-17T16:00:50.650Z,7.05
2023-01-17T16:05:56.910Z,7.20
2023-01-17T16:11:03.087Z,7.21
2023-01-17T16:16:16.787Z,7.14
2023-01-17T16:21:31.612Z,6.99
2023-01-17T16:26:34.129Z,6.97
2023-01-17T16:31:36.963Z,7.01
2023-01-17T16:36:39.265Z,7.04
2023-01-17T16:41:41.623Z,7.12
2023-01-17T16:46:43.809Z,7.11
2023-01-17T16:51:47.769Z,7.17
2023-01-17T16:56:49.945Z,7.16
2023-01-17T17:01:53.190Z,7.02
2023-01-17T17:06:55.542Z,7.05
2023-01-17T17:11:57.716Z,7.00
2023-01-17T17:17:02.589Z,6.52
2023-01-17T17:22:08.545Z,6.51
2023-01-17T17:27:10.573Z,6.30
2023-01-17T17:32:12.678Z,5.55
2023-01-17T17:37:16.128Z,4.45
2023-01-17T17:42:20.059Z,4.53
2023-01-17T17:47:23.997Z,4.37
2023-01-17T17:52:26.037Z,3.72
2023-01-17T17:57:28.037Z,3.34
2023-01-17T18:02:31.267Z,3.54
2023-01-17T18:07:34.441Z,3.76
2023-01-17T18:12:36.788Z,4.22
2023-01-17T18:17:38.758Z,4.57
2023-01-17T18:22:41.892Z,4.34
2023-01-17T18:27:45.137Z,4.62
2023-01-17T18:32:49.927Z,4.72
2023-01-17T18:37:52.467Z,4.83
2023-01-17T18:42:54.862Z,4.76
2023-01-17T18:47:57.119Z,4.72
2023-01-17T18:52:59.165Z,4.79
2023-01-17T18:58:01.206Z,4.73
2023-01-17T19:03:03.518Z,4.79
2023-01-17T19:08:05.713Z,4.80
2023-01-17T19:13:07.839Z,4.74
2023-01-17T19:18:11.308Z,4.72
2023-01-17T19:23:13.345Z,4.65
2023-01-17T19:28:15.354Z,4.75
2023-01-17T19:33:17.403Z,4.68
2023-01-17T19:38:19.378Z,4.63
2023-01-17T19:43:21.748Z,4.61
2023-01-17T19:48:24.804Z,4.65
2023-01-17T19:53:26.930Z,4.61
2023-01-17T19:58:28.958Z,4.55
2023-01-17T20:03:31.210Z,4.64
2023-01-17T20:08:35.589Z,4.59
2023-01-17T20:13:37.640Z,4.69
2023-01-17T20:18:39.770Z,4.59
2023-01-17T20:23:44.650Z,4.59
2023-01-17T20:28:49.872Z,4.51
2023-01-17T20:33:55.281Z,4.50
2023-01-17T20:38:57.555Z,4.45
2023-01-17T20:44:01.889Z,4.46
2023-01-17T20:49:07.602Z,4.46
2023-01-17T20:54:14.700Z,4.35
2023-01-17T20:59:24.488Z,4.44
2023-01-17T21:04:26.820Z,4.89
2023-01-17T21:09:28.870Z,4.90
2023-01-17T21:14:31.364Z,5.14
2023-01-17T21:19:33.825Z,5.23
2023-01-17T21:24:35.884Z,4.98
2023-01-17T21:29:38.144Z,4.98
2023-01-17T21:34:40.412Z,4.94
2023-01-17T21:39:42.449Z,5.11
2023-01-17T21:44:45.354Z,5.05
2023-01-17T21:49:47.631Z,4.85
2023-01-17T21:55:08.420Z,4.89
2023-01-17T22:00:14.677Z,4.99
2023-01-17T22:05:18.593Z,4.94
2023-01-17T22:10:20.649Z,4.78
2023-01-17T22:15:23.475Z,4.83
2023-01-17T22:20:25.685Z,4.73
2023-01-17T22:25:27.743Z,5.08
2023-01-17T22:30:30.059Z,5.25
2023-01-17T22:35:32.729Z,5.38
2023-01-17T22:40:38.268Z,5.40
2023-01-17T22:45:40.498Z,5.37
2023-01-17T22:50:42.470Z,5.49
2023-01-17T22:55:44.473Z,5.48
2023-01-17T23:00:47.453Z,5.44
2023-01-17T23:05:49.627Z,5.50
2023-01-17T23:11:10.467Z,5.54
2023-01-17T23:16:31.216Z,5.68
2023-01-17T23:21:53.366Z,5.24
2023-01-17T23:27:13.948Z,5.09
2023-01-17T23:32:16.814Z,5.16
2023-01-17T23:37:18.845Z,5.21
2023-01-17T23:42:39.597Z,5.22
2023-01-17T23:47:44.349Z,5.18
2023-01-17T23:52:46.555Z,5.22
2023-01-17T23:57:51.621Z,5.22
